createdAt,value
2019-03-19T00:00:57.481Z,7.50
2019-03-19T00:03:26.897Z,7.50
2019-03-19T00:05:56.239Z,7.40
2019-03-19T00:08:25.328Z,7.40
2019-03-19T00:10:54.718Z,7.40
2019-03-19T00:13:23.800Z,7.40
2019-03-19T00:15:52.865Z,7.40
2019-03-19T00:18:22.095Z,7.40
2019-03-19T00:20:51.126Z,7.40
2019-03-19T00:23:20.778Z,7.30
2019-03-19T00:25:49.739Z,7.30
2019-03-19T00:28:19.048Z,7.30
2019-03-19T00:30:48.148Z,7.30
2019-03-19T00:33:17.980Z,7.30
2019-03-19T00:35:46.986Z,7.30
2019-03-19T00:38:15.983Z,7.20
2019-03-19T00:40:44.991Z,7.20
2019-03-19T00:43:14.242Z,7.20
2019-03-19T00:45:43.302Z,7.20
2019-03-19T00:48:12.620Z,7.20
2019-03-19T00:50:42.015Z,7.10
2019-03-19T00:53:11.487Z,7.10
2019-03-19T00:55:41.204Z,7.10
2019-03-19T00:58:10.373Z,7.00
2019-03-19T01:00:39.832Z,7.00
2019-03-19T01:03:09.186Z,7.00
2019-03-19T01:05:38.302Z,6.90
2019-03-19T01:08:07.636Z,6.90
2019-03-19T01:10:37.075Z,6.90
2019-03-19T01:13:06.555Z,6.90
2019-03-19T01:15:35.624Z,6.90
2019-03-19T01:18:07.902Z,6.90
2019-03-19T01:20:36.920Z,6.80
2019-03-19T01:23:06.034Z,6.80
2019-03-19T01:25:35.518Z,6.80
2019-03-19T01:28:04.638Z,6.80
2019-03-19T01:30:33.719Z,6.80
2019-03-19T01:33:02.846Z,6.70
2019-03-19T01:35:32.111Z,6.70
2019-03-19T01:38:01.670Z,6.70
2019-03-19T01:40:30.800Z,6.70
2019-03-19T01:42:59.923Z,6.70
2019-03-19T01:45:29.303Z,6.70
2019-03-19T01:47:58.420Z,6.70
2019-03-19T01:50:27.486Z,6.60
2019-03-19T01:52:56.589Z,6.60
2019-03-19T01:55:25.938Z,6.60
2019-03-19T01:57:55.013Z,6.60
2019-03-19T02:00:24.047Z,6.60
2019-03-19T02:02:53.495Z,6.50
2019-03-19T02:05:22.575Z,6.50
2019-03-19T02:07:52.041Z,6.50
2019-03-19T02:10:21.404Z,6.50
2019-03-19T02:12:51.104Z,6.50
2019-03-19T02:15:20.172Z,6.50
2019-03-19T02:17:49.494Z,6.50
2019-03-19T02:20:18.903Z,6.40
2019-03-19T02:22:48.239Z,6.40
2019-03-19T02:25:17.319Z,6.40
2019-03-19T02:27:46.375Z,6.40
2019-03-19T02:30:15.457Z,6.40
2019-03-19T02:32:44.828Z,6.30
2019-03-19T02:35:14.056Z,6.30
2019-03-19T02:37:44.302Z,6.30
2019-03-19T02:40:13.411Z,6.30
2019-03-19T02:42:42.625Z,6.30
2019-03-19T02:45:12.272Z,6.30
2019-03-19T02:47:41.615Z,6.30
2019-03-19T02:50:10.810Z,6.30
2019-03-19T02:52:40.172Z,6.30
2019-03-19T02:55:09.409Z,6.30
2019-03-19T02:57:38.470Z,6.20
2019-03-19T03:00:08.745Z,6.30
2019-03-19T03:02:37.839Z,6.20
2019-03-19T03:05:08.085Z,6.20
2019-03-19T03:07:37.255Z,6.20
2019-03-19T03:10:06.893Z,6.20
2019-03-19T03:12:36.379Z,6.20
2019-03-19T03:15:06.097Z,6.10
2019-03-19T03:17:35.217Z,6.20
2019-03-19T03:20:04.881Z,6.20
2019-03-19T03:22:34.236Z,6.20
2019-03-19T03:25:03.725Z,6.10
2019-03-19T03:27:32.808Z,6.10
2019-03-19T03:30:02.235Z,6.10
2019-03-19T03:32:32.637Z,6.10
2019-03-19T03:35:02.163Z,6.10
2019-03-19T03:37:31.528Z,6.10
2019-03-19T03:40:01.030Z,6.10
2019-03-19T03:42:30.125Z,6.10
2019-03-19T03:44:59.107Z,6.10
2019-03-19T03:47:28.095Z,6.10
2019-03-19T03:49:57.055Z,6.10
2019-03-19T03:52:26.364Z,6.00
2019-03-19T03:54:55.615Z,6.00
2019-03-19T03:57:24.929Z,6.00
2019-03-19T03:59:54.617Z,6.00
2019-03-19T04:02:23.780Z,6.00
2019-03-19T04:04:53.218Z,6.00
2019-03-19T04:07:22.398Z,6.00
2019-03-19T04:09:51.687Z,6.00
2019-03-19T04:12:21.034Z,6.00
2019-03-19T04:14:50.146Z,6.00
2019-03-19T04:17:19.580Z,6.00
2019-03-19T04:19:48.643Z,6.00
2019-03-19T04:22:18.331Z,6.00
2019-03-19T04:24:47.419Z,6.00
2019-03-19T04:27:16.805Z,5.90
2019-03-19T04:29:46.145Z,5.90
2019-03-19T04:32:15.221Z,5.90
2019-03-19T04:34:44.814Z,5.90
2019-03-19T04:37:13.720Z,5.80
2019-03-19T04:39:43.067Z,5.80
2019-03-19T04:42:12.167Z,5.80
2019-03-19T04:44:41.259Z,5.80
2019-03-19T04:47:10.284Z,5.80
2019-03-19T04:49:39.369Z,5.70
2019-03-19T04:52:08.483Z,5.70
2019-03-19T04:54:37.811Z,5.70
2019-03-19T04:57:06.806Z,5.70
2019-03-19T04:59:36.054Z,5.70
2019-03-19T05:02:05.176Z,5.70
2019-03-19T05:04:34.228Z,5.70
2019-03-19T05:07:03.533Z,5.70
2019-03-19T05:09:32.869Z,5.60
2019-03-19T05:12:02.208Z,5.60
2019-03-19T05:14:31.228Z,5.60
2019-03-19T05:17:00.583Z,5.60
2019-03-19T05:19:29.675Z,5.60
2019-03-19T05:21:59.060Z,5.60
2019-03-19T05:24:28.691Z,5.60
2019-03-19T05:26:58.433Z,5.60
2019-03-19T05:29:27.913Z,5.60
2019-03-19T05:31:57.025Z,5.60
2019-03-19T05:34:26.450Z,5.60
2019-03-19T05:36:55.774Z,5.60
2019-03-19T05:39:24.795Z,5.60
2019-03-19T05:41:53.893Z,5.50
2019-03-19T05:44:23.058Z,5.50
2019-03-19T05:46:52.099Z,5.50
2019-03-19T05:49:21.177Z,5.60
2019-03-19T05:51:50.897Z,5.60
2019-03-19T05:54:20.210Z,5.60
2019-03-19T05:56:49.551Z,5.70
2019-03-19T05:59:18.890Z,5.70
2019-03-19T06:01:47.904Z,5.80
2019-03-19T06:04:16.889Z,5.90
2019-03-19T06:06:46.076Z,6.10
2019-03-19T06:09:15.035Z,6.50
2019-03-19T06:11:44.091Z,6.90
2019-03-19T06:14:13.085Z,6.90
2019-03-19T06:16:41.985Z,6.90
2019-03-19T06:19:10.957Z,7.00
2019-03-19T06:21:39.983Z,7.40
2019-03-19T06:24:09.163Z,7.90
2019-03-19T06:26:38.488Z,8.50
2019-03-19T06:29:07.998Z,9.00
2019-03-19T06:31:40.445Z,9.50
2019-03-19T06:34:09.522Z,9.90
2019-03-19T06:36:38.953Z,11.00
2019-03-19T06:39:08.731Z,11.40
2019-03-19T06:41:38.137Z,11.20
2019-03-19T06:44:07.194Z,10.70
2019-03-19T06:46:36.894Z,10.20
2019-03-19T06:49:06.179Z,9.70
2019-03-19T06:51:35.178Z,9.50
2019-03-19T06:54:04.249Z,9.50
2019-03-19T06:56:33.269Z,9.60
2019-03-19T06:59:02.827Z,9.80
2019-03-19T07:01:32.280Z,9.90
2019-03-19T07:04:01.523Z,10.00
2019-03-19T07:06:30.496Z,10.10
2019-03-19T07:08:59.618Z,10.40
2019-03-19T07:11:29.112Z,10.60
2019-03-19T07:13:58.071Z,10.80
2019-03-19T07:16:27.131Z,11.10
2019-03-19T07:18:56.259Z,11.40
2019-03-19T07:21:25.296Z,11.90
2019-03-19T07:23:54.396Z,12.30
2019-03-19T07:26:23.505Z,12.30
2019-03-19T07:28:53.168Z,12.20
2019-03-19T07:31:30.418Z,11.90
2019-03-19T07:33:53.593Z,11.60
2019-03-19T07:36:22.981Z,11.40
2019-03-19T07:38:52.405Z,11.20
2019-03-19T07:41:21.706Z,11.00
2019-03-19T07:43:50.831Z,10.80
2019-03-19T07:46:19.936Z,10.70
2019-03-19T07:48:49.342Z,10.70
2019-03-19T07:51:18.970Z,10.50
2019-03-19T07:53:48.138Z,10.40
2019-03-19T07:56:17.266Z,10.30
2019-03-19T07:58:46.976Z,10.30
2019-03-19T08:01:16.064Z,10.60
2019-03-19T08:03:45.386Z,10.70
2019-03-19T08:06:14.459Z,11.00
2019-03-19T08:08:43.822Z,11.40
2019-03-19T08:11:13.351Z,11.60
2019-03-19T08:13:42.369Z,12.00
2019-03-19T08:16:11.475Z,12.70
2019-03-19T08:18:40.581Z,13.00
2019-03-19T08:21:09.736Z,12.90
2019-03-19T08:23:39.171Z,12.60
2019-03-19T08:26:08.648Z,12.10
2019-03-19T08:28:37.728Z,11.70
2019-03-19T08:31:07.124Z,11.40
2019-03-19T08:33:36.134Z,11.10
2019-03-19T08:36:09.596Z,10.90
2019-03-19T08:38:36.722Z,10.80
2019-03-19T08:41:06.001Z,10.70
2019-03-19T08:43:35.438Z,10.70
2019-03-19T08:46:04.822Z,10.70
2019-03-19T08:48:34.157Z,10.70
2019-03-19T08:51:03.317Z,10.70
2019-03-19T08:53:32.367Z,10.70
2019-03-19T08:56:01.919Z,10.80
2019-03-19T08:58:30.991Z,10.80
2019-03-19T09:01:00.496Z,10.90
2019-03-19T09:04:25.108Z,10.90
2019-03-19T09:06:54.269Z,10.90
2019-03-19T09:09:23.947Z,10.80
2019-03-19T09:11:53.028Z,10.80
2019-03-19T09:14:22.837Z,10.90
2019-03-19T09:16:52.091Z,11.00
2019-03-19T09:19:21.582Z,11.10
2019-03-19T09:21:50.630Z,11.20
2019-03-19T09:24:24.065Z,11.30
2019-03-19T09:26:53.315Z,11.30
2019-03-19T09:29:22.749Z,11.40
2019-03-19T09:31:51.830Z,11.40
2019-03-19T09:34:21.133Z,11.50
2019-03-19T09:36:57.346Z,11.40
2019-03-19T09:39:20.974Z,11.30
2019-03-19T09:41:50.150Z,11.40
2019-03-19T09:44:20.030Z,11.50
2019-03-19T09:46:49.243Z,11.60
2019-03-19T09:49:21.041Z,11.70
2019-03-19T09:51:50.047Z,11.80
2019-03-19T09:54:19.338Z,12.00
2019-03-19T09:56:48.921Z,12.10
2019-03-19T09:59:26.742Z,12.30
2019-03-19T10:01:49.307Z,12.40
2019-03-19T10:04:18.723Z,12.50
2019-03-19T10:06:47.795Z,12.50
2019-03-19T10:09:16.923Z,12.60
2019-03-19T10:11:46.692Z,12.70
2019-03-19T10:14:19.723Z,12.70
2019-03-19T10:16:49.742Z,12.50
2019-03-19T10:19:19.394Z,12.30
2019-03-19T10:21:49.157Z,12.10
2019-03-19T10:24:18.230Z,12.20
2019-03-19T10:26:47.473Z,12.20
2019-03-19T10:29:16.553Z,12.20
2019-03-19T10:31:49.015Z,12.20
2019-03-19T10:34:18.130Z,12.40
2019-03-19T10:36:47.238Z,12.60
2019-03-19T10:39:16.379Z,13.00
2019-03-19T10:41:45.578Z,13.20
2019-03-19T10:44:15.252Z,13.50
2019-03-19T10:46:44.574Z,13.60
2019-03-19T10:49:13.901Z,13.70
2019-03-19T10:51:43.115Z,13.60
2019-03-19T10:54:13.051Z,13.70
2019-03-19T10:56:42.491Z,13.90
2019-03-19T10:59:11.724Z,14.00
2019-03-19T11:01:41.397Z,14.10
2019-03-19T11:04:10.589Z,14.30
2019-03-19T11:06:40.364Z,14.30
2019-03-19T11:09:09.543Z,14.10
2019-03-19T11:11:39.150Z,14.00
2019-03-19T11:14:08.397Z,14.00
2019-03-19T11:16:38.027Z,13.90
2019-03-19T11:19:07.700Z,13.80
2019-03-19T11:21:37.607Z,13.80
2019-03-19T11:24:06.984Z,13.70
2019-03-19T11:26:36.265Z,13.60
2019-03-19T11:29:05.408Z,13.40
2019-03-19T11:31:34.921Z,13.30
2019-03-19T11:34:04.049Z,13.30
2019-03-19T11:36:33.353Z,13.40
2019-03-19T11:39:02.522Z,13.50
2019-03-19T11:41:31.640Z,13.30
2019-03-19T11:44:00.932Z,13.10
2019-03-19T11:46:30.020Z,13.10
2019-03-19T11:48:59.148Z,12.90
2019-03-19T11:51:28.330Z,13.10
2019-03-19T11:53:57.626Z,13.20
2019-03-19T11:56:26.855Z,13.30
2019-03-19T11:58:56.530Z,13.40
2019-03-19T12:01:25.599Z,13.40
2019-03-19T12:03:55.396Z,13.30
2019-03-19T12:06:24.642Z,13.40
2019-03-19T12:08:53.979Z,13.40
2019-03-19T12:11:23.171Z,13.50
2019-03-19T12:13:52.336Z,13.40
2019-03-19T12:16:21.378Z,13.40
2019-03-19T12:18:50.776Z,13.40
2019-03-19T12:21:20.159Z,13.20
2019-03-19T12:23:49.746Z,13.00
2019-03-19T12:26:18.961Z,13.00
2019-03-19T12:28:48.585Z,13.20
2019-03-19T12:31:17.703Z,13.20
2019-03-19T12:33:47.181Z,13.40
2019-03-19T12:36:16.625Z,13.70
2019-03-19T12:38:45.688Z,13.80
2019-03-19T12:41:14.887Z,13.90
2019-03-19T12:43:44.448Z,14.00
2019-03-19T12:46:13.559Z,14.00
2019-03-19T12:48:42.785Z,14.00
2019-03-19T12:51:11.927Z,14.10
2019-03-19T12:53:41.452Z,14.20
2019-03-19T12:56:11.544Z,14.20
2019-03-19T12:58:40.637Z,13.90
2019-03-19T13:01:10.072Z,13.70
2019-03-19T13:03:39.338Z,13.80
2019-03-19T13:06:08.538Z,13.90
2019-03-19T13:08:37.784Z,14.10
2019-03-19T13:11:07.070Z,14.10
2019-03-19T13:13:37.214Z,14.20
2019-03-19T13:16:06.595Z,14.20
2019-03-19T13:18:35.740Z,14.30
2019-03-19T13:21:04.791Z,14.30
2019-03-19T13:23:34.340Z,14.40
2019-03-19T13:26:03.551Z,14.40
2019-03-19T13:28:33.052Z,14.30
2019-03-19T13:31:02.329Z,14.30
2019-03-19T13:33:31.847Z,14.40
2019-03-19T13:36:01.010Z,14.30
2019-03-19T13:38:30.005Z,14.40
2019-03-19T13:40:59.534Z,14.40
2019-03-19T13:43:28.988Z,14.30
2019-03-19T13:45:58.873Z,14.20
2019-03-19T13:48:28.265Z,13.90
2019-03-19T13:50:57.813Z,13.90
2019-03-19T13:53:28.070Z,13.80
2019-03-19T13:55:57.278Z,13.70
2019-03-19T13:58:27.391Z,13.80
2019-03-19T14:00:57.051Z,13.90
2019-03-19T14:03:26.357Z,14.00
2019-03-19T14:05:56.221Z,14.00
2019-03-19T14:08:25.406Z,14.00
2019-03-19T14:10:54.992Z,14.10
2019-03-19T14:13:24.668Z,14.20
2019-03-19T14:15:53.836Z,14.40
2019-03-19T14:18:23.041Z,14.30
2019-03-19T14:20:52.425Z,14.30
2019-03-19T14:23:22.423Z,14.20
2019-03-19T14:25:52.219Z,14.00
2019-03-19T14:28:22.962Z,14.00
2019-03-19T14:30:52.353Z,13.70
2019-03-19T14:33:21.437Z,13.70
2019-03-19T14:35:50.548Z,13.60
2019-03-19T14:38:19.692Z,13.60
2019-03-19T14:40:49.099Z,13.50
2019-03-19T14:43:18.095Z,13.40
2019-03-19T14:45:47.810Z,13.20
2019-03-19T14:48:17.315Z,13.10
2019-03-19T14:50:46.402Z,13.10
2019-03-19T14:53:16.206Z,13.10
2019-03-19T14:55:45.284Z,13.10
2019-03-19T14:58:14.778Z,13.20
2019-03-19T15:00:44.224Z,13.10
2019-03-19T15:03:13.298Z,13.20
2019-03-19T15:05:42.711Z,13.20
2019-03-19T15:08:12.402Z,13.20
2019-03-19T15:10:41.534Z,13.20
2019-03-19T15:13:10.584Z,13.20
2019-03-19T15:15:39.778Z,13.20
2019-03-19T15:18:08.857Z,13.20
2019-03-19T15:20:38.247Z,13.20
2019-03-19T15:23:07.912Z,13.40
2019-03-19T15:25:37.429Z,13.50
2019-03-19T15:28:06.521Z,13.50
2019-03-19T15:30:35.874Z,13.60
2019-03-19T15:33:05.171Z,13.70
2019-03-19T15:35:34.396Z,13.80
2019-03-19T15:38:03.953Z,13.90
2019-03-19T15:40:33.752Z,13.90
2019-03-19T15:43:03.209Z,13.90
2019-03-19T15:45:32.366Z,13.90
2019-03-19T15:48:01.508Z,13.80
2019-03-19T15:50:30.614Z,13.70
2019-03-19T15:53:00.190Z,13.60
2019-03-19T15:55:29.222Z,13.30
2019-03-19T15:57:58.251Z,13.30
2019-03-19T16:00:27.393Z,13.10
2019-03-19T16:02:56.540Z,13.10
2019-03-19T16:05:25.709Z,13.00
2019-03-19T16:07:54.799Z,12.90
2019-03-19T16:10:23.997Z,12.80
2019-03-19T16:12:53.385Z,12.80
2019-03-19T16:15:23.189Z,12.80
2019-03-19T16:17:52.297Z,12.80
2019-03-19T16:20:21.411Z,12.70
2019-03-19T16:22:50.558Z,12.70
2019-03-19T16:25:19.642Z,12.70
2019-03-19T16:27:48.762Z,12.70
2019-03-19T16:30:17.823Z,12.70
2019-03-19T16:32:46.987Z,12.70
2019-03-19T16:35:16.394Z,12.60
2019-03-19T16:37:45.470Z,12.60
2019-03-19T16:40:16.626Z,12.50
2019-03-19T16:42:46.146Z,12.50
2019-03-19T16:45:17.693Z,12.50
2019-03-19T16:47:46.881Z,12.50
2019-03-19T16:50:16.119Z,12.40
2019-03-19T16:52:45.291Z,12.40
2019-03-19T16:55:14.845Z,12.30
2019-03-19T16:57:44.078Z,12.30
2019-03-19T17:00:15.230Z,12.30
2019-03-19T17:02:44.432Z,12.30
2019-03-19T17:05:14.399Z,12.20
2019-03-19T17:07:43.446Z,12.20
2019-03-19T17:10:13.561Z,12.10
2019-03-19T17:12:42.741Z,12.10
2019-03-19T17:15:12.658Z,12.10
2019-03-19T17:17:41.865Z,12.10
2019-03-19T17:20:11.575Z,12.00
2019-03-19T17:22:40.656Z,12.00
2019-03-19T17:25:10.964Z,12.00
2019-03-19T17:27:40.438Z,11.90
2019-03-19T17:30:17.300Z,11.90
2019-03-19T17:32:47.509Z,11.90
2019-03-19T17:35:16.675Z,11.80
2019-03-19T17:37:45.810Z,11.80
2019-03-19T17:40:15.178Z,11.70
2019-03-19T17:42:44.556Z,11.70
2019-03-19T17:45:13.634Z,11.70
2019-03-19T17:47:42.668Z,11.70
2019-03-19T17:50:14.598Z,11.60
2019-03-19T17:52:43.716Z,11.50
2019-03-19T17:55:13.256Z,11.50
2019-03-19T17:57:42.383Z,11.40
2019-03-19T18:00:13.949Z,11.40
2019-03-19T18:02:42.945Z,11.40
2019-03-19T18:05:12.035Z,11.40
2019-03-19T18:07:41.029Z,11.30
2019-03-19T18:10:10.555Z,11.30
2019-03-19T18:12:39.635Z,11.30
2019-03-19T18:15:08.872Z,11.20
2019-03-19T18:17:38.539Z,11.20
2019-03-19T18:20:07.816Z,11.20
2019-03-19T18:22:37.080Z,11.20
2019-03-19T18:25:06.500Z,11.20
2019-03-19T18:27:35.581Z,11.10
2019-03-19T18:30:05.393Z,11.10
2019-03-19T18:32:35.532Z,11.10
2019-03-19T18:35:05.173Z,11.10
2019-03-19T18:37:34.385Z,11.10
2019-03-19T18:40:03.487Z,11.00
2019-03-19T18:42:32.604Z,10.90
2019-03-19T18:45:01.559Z,10.90
2019-03-19T18:47:30.915Z,10.90
2019-03-19T18:50:00.345Z,10.80
2019-03-19T18:52:29.828Z,10.90
2019-03-19T18:54:58.910Z,10.90
2019-03-19T18:57:28.155Z,10.90
2019-03-19T18:59:57.554Z,10.80
2019-03-19T19:02:26.665Z,10.80
2019-03-19T19:04:55.848Z,10.80
2019-03-19T19:07:24.987Z,10.80
2019-03-19T19:09:54.564Z,10.80
2019-03-19T19:12:23.897Z,10.80
2019-03-19T19:14:53.011Z,10.70
2019-03-19T19:17:22.596Z,10.70
2019-03-19T19:19:52.042Z,10.70
2019-03-19T19:22:24.233Z,10.70
2019-03-19T19:24:53.449Z,10.70
2019-03-19T19:27:22.602Z,10.70
2019-03-19T19:29:51.656Z,10.60
2019-03-19T19:32:21.387Z,10.60
2019-03-19T19:34:51.138Z,10.60
2019-03-19T19:37:20.287Z,10.60
2019-03-19T19:39:50.111Z,10.60
2019-03-19T19:42:19.097Z,10.60
2019-03-19T19:44:48.201Z,10.50
2019-03-19T19:47:17.339Z,10.50
2019-03-19T19:49:46.435Z,10.50
2019-03-19T19:52:15.483Z,10.50
2019-03-19T19:54:44.436Z,10.40
2019-03-19T19:57:13.793Z,10.40
2019-03-19T19:59:42.874Z,10.40
2019-03-19T20:02:12.053Z,10.40
2019-03-19T20:04:41.394Z,10.30
2019-03-19T20:07:10.488Z,10.30
2019-03-19T20:09:39.515Z,10.30
2019-03-19T20:12:08.723Z,10.30
2019-03-19T20:14:37.760Z,10.30
2019-03-19T20:17:06.808Z,10.30
2019-03-19T20:19:36.525Z,10.30
2019-03-19T20:22:05.565Z,10.30
2019-03-19T20:24:34.609Z,10.30
2019-03-19T20:27:03.846Z,10.30
2019-03-19T20:29:33.656Z,10.30
2019-03-19T20:32:03.015Z,10.30
2019-03-19T20:34:32.094Z,10.30
2019-03-19T20:37:01.155Z,10.30
2019-03-19T20:39:30.584Z,10.30
2019-03-19T20:42:00.079Z,10.30
2019-03-19T20:44:29.209Z,10.30
2019-03-19T20:46:58.506Z,10.30
2019-03-19T20:49:27.561Z,10.30
2019-03-19T20:51:56.559Z,10.30
2019-03-19T20:54:25.590Z,10.30
2019-03-19T20:56:54.650Z,10.30
2019-03-19T20:59:24.027Z,10.20
2019-03-19T21:01:53.009Z,10.30
2019-03-19T21:04:22.446Z,10.20
2019-03-19T21:06:51.472Z,10.20
2019-03-19T21:09:20.485Z,10.20
2019-03-19T21:11:49.625Z,10.20
2019-03-19T21:14:18.657Z,10.20
2019-03-19T21:16:47.718Z,10.10
2019-03-19T21:19:16.741Z,10.10
2019-03-19T21:21:45.976Z,10.10
2019-03-19T21:24:15.461Z,10.10
2019-03-19T21:26:44.906Z,10.10
2019-03-19T21:29:13.875Z,10.10
2019-03-19T21:31:43.266Z,10.10
2019-03-19T21:34:12.556Z,10.10
2019-03-19T21:36:41.518Z,10.10
2019-03-19T21:39:10.508Z,10.10
2019-03-19T21:41:40.240Z,10.10
2019-03-19T21:44:09.411Z,10.00
2019-03-19T21:46:38.780Z,10.00
2019-03-19T21:49:08.194Z,10.00
2019-03-19T21:51:37.100Z,10.00
2019-03-19T21:54:06.157Z,10.00
2019-03-19T21:56:35.236Z,9.90
2019-03-19T21:59:04.339Z,9.90
2019-03-19T22:01:33.560Z,9.90
2019-03-19T22:04:03.440Z,9.90
2019-03-19T22:06:32.675Z,9.90
2019-03-19T22:09:01.967Z,9.90
2019-03-19T22:11:30.926Z,9.90
2019-03-19T22:14:00.412Z,9.80
2019-03-19T22:16:29.656Z,9.80
2019-03-19T22:18:58.598Z,9.80
2019-03-19T22:21:27.471Z,9.70
2019-03-19T22:23:56.604Z,9.70
2019-03-19T22:26:25.667Z,9.70
2019-03-19T22:28:54.667Z,9.60
2019-03-19T22:31:23.701Z,9.60
2019-03-19T22:33:52.635Z,9.50
2019-03-19T22:36:21.664Z,10.60
2019-03-19T22:38:50.640Z,9.40
2019-03-19T22:41:19.721Z,9.40
2019-03-19T22:43:49.110Z,9.40
2019-03-19T22:46:21.890Z,9.30
2019-03-19T22:48:49.086Z,9.20
2019-03-19T22:51:18.152Z,9.10
2019-03-19T22:53:47.384Z,9.00
2019-03-19T22:56:16.448Z,9.00
2019-03-19T22:58:45.563Z,8.90
2019-03-19T23:01:15.113Z,8.90
2019-03-19T23:03:44.287Z,8.80
2019-03-19T23:06:13.831Z,8.80
2019-03-19T23:08:42.908Z,8.80
2019-03-19T23:11:11.980Z,8.70
2019-03-19T23:13:42.054Z,8.70
2019-03-19T23:16:11.695Z,8.70
2019-03-19T23:18:40.669Z,8.60
2019-03-19T23:21:09.753Z,8.50
2019-03-19T23:23:38.688Z,8.50
2019-03-19T23:26:07.679Z,8.50
2019-03-19T23:28:36.652Z,8.50
2019-03-19T23:31:05.693Z,8.50
2019-03-19T23:33:34.759Z,8.50
2019-03-19T23:36:03.912Z,8.50
2019-03-19T23:38:32.946Z,8.50
2019-03-19T23:41:01.979Z,8.50
2019-03-19T23:43:31.048Z,8.50
2019-03-19T23:46:00.500Z,8.40
2019-03-19T23:48:29.887Z,8.40
2019-03-19T23:50:58.934Z,8.40
2019-03-19T23:53:28.269Z,8.40
2019-03-19T23:55:57.500Z,8.30
2019-03-19T23:58:26.536Z,8.20
